Time;durP1;ratioP1;P1;durP2;ratioP2;P2;SDS_P1;SDS_P2;PMS_P1;PMS_P2;Temp;Humidity;BMP_temperature;BMP_pressure;BME280_temperature;BME280_humidity;BME280_pressure;Samples;Min_cycle;Max_cycle;Signal;HPM_P1;HPM_P2
2023/11/14 00:01:36;;;;;;;;;;;;;;;25.77;37.47;100689.69;4198076;28;19924;-61
2023/11/14 00:03:37;;;;;;;;;;;;;;;25.76;37.29;100693.38;4198182;28;19927;-61
2023/11/14 00:05:39;;;;;;;;;;;;;;;25.76;37.47;100690.69;4197799;28;19931;-60
2023/11/14 00:07:41;;;;;;;;;;;;;;;25.78;37.55;100690.53;4198301;28;19920;-60
2023/11/14 00:09:43;;;;;;;;;;;;;;;25.78;37.47;100685.97;4197976;28;20016;-60
2023/11/14 00:11:49;;;;;;;;;;;;;;;25.81;37.06;100679.44;4197827;28;19924;-60
2023/11/14 00:13:51;;;;;;;;;;;;;;;25.81;37.50;100696.44;4198293;28;19920;-60
2023/11/14 00:15:53;;;;;;;;;;;;;;;25.82;37.38;100700.84;4197960;28;19974;-61
2023/11/14 00:17:54;;;;;;;;;;;;;;;25.81;37.50;100692.91;4198139;28;20424;-60
2023/11/14 00:19:56;;;;;;;;;;;;;;;25.78;37.41;100688.66;4198165;28;20002;-60
2023/11/14 00:21:58;;;;;;;;;;;;;;;25.78;37.38;100693.22;4198089;28;20011;-61
2023/11/14 00:23:59;;;;;;;;;;;;;;;25.77;37.29;100686.13;4198129;28;19928;-60
2023/11/14 00:26:01;;;;;;;;;;;;;;;25.74;37.13;100673.81;4197930;28;19920;-61
2023/11/14 00:28:03;;;;;;;;;;;;;;;25.76;37.11;100684.44;4198035;28;19920;-60
2023/11/14 00:30:06;;;;;;;;;;;;;;;25.76;37.44;100679.03;4197984;28;20015;-61
2023/11/14 00:32:12;;;;;;;;;;;;;;;25.78;37.47;100695.91;4197602;28;19920;-60
2023/11/14 00:34:14;;;;;;;;;;;;;;;25.78;37.08;100687.81;4198034;28;19963;-61
2023/11/14 00:36:16;;;;;;;;;;;;;;;25.79;37.07;100693.06;4198036;28;19927;-61
2023/11/14 00:38:18;;;;;;;;;;;;;;;25.80;37.29;100704.69;4197870;28;19920;-60
2023/11/14 00:40:21;;;;;;;;;;;;;;;25.80;37.35;100708.22;4197841;28;20302;-60
2023/11/14 00:42:24;;;;;;;;;;;;;;;25.79;37.04;100694.91;4197826;28;19959;-61
2023/11/14 00:44:25;;;;;;;;;;;;;;;25.77;37.20;100695.06;4197725;28;19978;-61
2023/11/14 00:46:26;;;;;;;;;;;;;;;25.75;37.20;100699.75;4197338;28;19921;-60
2023/11/14 00:48:33;;;;;;;;;;;;;;;25.72;37.45;100700.06;4197699;28;20023;-61
2023/11/14 00:50:34;;;;;;;;;;;;;;;25.73;37.32;100690.97;4197405;28;19927;-61
2023/11/14 00:52:36;;;;;;;;;;;;;;;25.72;37.28;100693.84;4197775;28;19924;-60
2023/11/14 00:54:37;;;;;;;;;;;;;;;25.74;37.37;100683.75;4197544;28;20375;-60
2023/11/14 00:56:39;;;;;;;;;;;;;;;25.74;37.35;100675.69;4197626;28;19920;-60
2023/11/14 00:58:41;;;;;;;;;;;;;;;25.75;37.14;100683.59;4197530;28;19921;-59
2023/11/14 01:00:43;;;;;;;;;;;;;;;25.76;37.18;100687.13;4197054;28;20291;-60
2023/11/14 01:02:45;;;;;;;;;;;;;;;25.76;37.13;100714.06;4197454;28;19920;-61
2023/11/14 01:04:47;;;;;;;;;;;;;;;25.74;36.99;100710.69;4197221;28;19924;-61
2023/11/14 01:06:49;;;;;;;;;;;;;;;25.72;36.98;100710.84;4197318;28;19963;-60
2023/11/14 01:08:50;;;;;;;;;;;;;;;25.71;37.25;100719.91;4197196;28;19973;-61
2023/11/14 01:10:54;;;;;;;;;;;;;;;25.70;36.75;100730.84;4197430;28;20014;-61
2023/11/14 01:13:00;;;;;;;;;;;;;;;25.70;37.03;100726.31;4197476;28;19953;-61
2023/11/14 01:15:02;;;;;;;;;;;;;;;25.70;36.99;100734.41;4196701;28;19970;-61
2023/11/14 01:17:04;;;;;;;;;;;;;;;25.69;37.21;100740.78;4197091;28;19920;-60
2023/11/14 01:19:06;;;;;;;;;;;;;;;25.69;37.07;100743.47;4197499;28;19924;-60
2023/11/14 01:21:07;;;;;;;;;;;;;;;25.71;36.74;100751.41;4197150;28;19944;-60
2023/11/14 01:23:09;;;;;;;;;;;;;;;25.71;37.15;100754.94;4196985;28;19924;-60
2023/11/14 01:25:11;;;;;;;;;;;;;;;25.72;37.08;100755.78;4197455;28;19920;-60
2023/11/14 01:27:13;;;;;;;;;;;;;;;25.71;36.70;100768.41;4197159;28;20007;-60
2023/11/14 01:29:14;;;;;;;;;;;;;;;25.70;36.96;100774.81;4196630;28;19928;-60
2023/11/14 01:31:22;;;;;;;;;;;;;;;25.70;37.08;100773.94;4197337;28;19924;-60
2023/11/14 01:33:24;;;;;;;;;;;;;;;25.67;36.85;100773.25;4197211;28;19942;-61
2023/11/14 01:35:25;;;;;;;;;;;;;;;25.67;37.02;100773.25;4196886;28;19927;-60
2023/11/14 01:37:27;;;;;;;;;;;;;;;25.66;37.02;100771.56;4196985;28;19927;-60
2023/11/14 01:39:31;;;;;;;;;;;;;;;25.67;36.99;100783.19;4197167;28;19990;-61
2023/11/14 01:41:33;;;;;;;;;;;;;;;25.68;37.03;100779.50;4197047;28;19920;-61
2023/11/14 01:43:42;;;;;;;;;;;;;;;25.67;36.97;100781.31;4196716;28;19927;-61
2023/11/14 01:45:44;;;;;;;;;;;;;;;25.69;37.11;100770.41;4197054;28;19921;-61
2023/11/14 01:47:47;;;;;;;;;;;;;;;25.70;36.92;100777.50;4196778;28;20015;-61
2023/11/14 01:49:49;;;;;;;;;;;;;;;25.70;36.92;100774.81;4196866;28;19943;-61
2023/11/14 01:51:50;;;;;;;;;;;;;;;25.71;36.78;100781.88;4196951;28;19942;-60
2023/11/14 01:53:54;;;;;;;;;;;;;;;25.71;36.97;100778.34;4197333;28;20363;-61
2023/11/14 01:55:56;;;;;;;;;;;;;;;25.70;37.02;100774.81;4196867;28;20018;-61
2023/11/14 01:57:58;;;;;;;;;;;;;;;25.69;36.62;100762.34;4196582;28;19991;-60
2023/11/14 02:00:01;;;;;;;;;;;;;;;25.69;36.75;100767.72;4196684;28;19972;-61
2023/11/14 02:02:04;;;;;;;;;;;;;;;25.68;37.02;100761.47;4196947;28;20356;-59
2023/11/14 02:04:08;;;;;;;;;;;;;;;25.68;36.90;100758.78;4197049;28;20363;-61
2023/11/14 02:06:10;;;;;;;;;;;;;;;25.70;37.02;100758.66;4196721;28;19947;-61
2023/11/14 02:08:12;;;;;;;;;;;;;;;25.70;36.95;100772.13;4195454;28;19920;-61
2023/11/14 02:10:13;;;;;;;;;;;;;;;25.69;36.53;100765.03;4196738;28;19920;-60
2023/11/14 02:12:15;;;;;;;;;;;;;;;25.70;36.85;100796.34;4196427;28;19920;-61
2023/11/14 02:14:16;;;;;;;;;;;;;;;25.72;36.91;100805.13;4195548;28;20401;-60
2023/11/14 02:16:18;;;;;;;;;;;;;;;25.72;36.52;100796.19;4196605;28;19921;-60
2023/11/14 02:18:20;;;;;;;;;;;;;;;25.70;36.86;100782.03;4196722;28;19955;-60
2023/11/14 02:20:21;;;;;;;;;;;;;;;25.68;36.49;100779.50;4196640;28;19920;-61
2023/11/14 02:22:23;;;;;;;;;;;;;;;25.69;36.77;100783.88;4196699;28;19985;-60
2023/11/14 02:24:27;;;;;;;;;;;;;;;25.66;36.61;100779.66;4196767;28;19927;-61
2023/11/14 02:26:29;;;;;;;;;;;;;;;25.67;36.92;100778.63;4195013;28;19928;-60
2023/11/14 02:28:30;;;;;;;;;;;;;;;25.68;36.72;100782.19;4196373;28;19924;-60
2023/11/14 02:30:32;;;;;;;;;;;;;;;25.68;36.63;100774.09;4196679;28;19952;-61
2023/11/14 02:32:33;;;;;;;;;;;;;;;25.68;36.87;100771.41;4196381;28;19931;-60
2023/11/14 02:34:35;;;;;;;;;;;;;;;25.68;36.69;100766.03;4198675;28;19920;-60
2023/11/14 02:36:37;;;;;;;;;;;;;;;25.68;36.58;100769.56;4199716;28;19928;-60
2023/11/14 02:38:39;;;;;;;;;;;;;;;25.70;36.98;100771.25;4199707;28;20370;-60
2023/11/14 02:40:45;;;;;;;;;;;;;;;25.71;36.63;100783.72;4199752;28;19927;-60
2023/11/14 02:42:46;;;;;;;;;;;;;;;25.70;36.83;100772.13;4199097;28;20023;-61
2023/11/14 02:44:48;;;;;;;;;;;;;;;25.70;36.85;100772.13;4199444;28;19948;-61
2023/11/14 02:46:49;;;;;;;;;;;;;;;25.68;36.74;100777.63;4199506;28;20280;-60
2023/11/14 02:48:52;;;;;;;;;;;;;;;25.68;36.70;100782.19;4199373;28;19966;-60
2023/11/14 02:50:54;;;;;;;;;;;;;;;25.67;36.96;100781.31;4199222;28;19982;-60
2023/11/14 02:52:58;;;;;;;;;;;;;;;25.68;36.92;100784.88;4199499;28;19924;-60
2023/11/14 02:55:00;;;;;;;;;;;;;;;25.69;36.93;100783.88;4199568;28;19921;-60
2023/11/14 02:57:05;;;;;;;;;;;;;;;25.70;36.67;100776.63;4199170;28;19920;-60
2023/11/14 02:59:07;;;;;;;;;;;;;;;25.69;36.71;100783.88;4199154;28;19936;-60
2023/11/14 03:01:08;;;;;;;;;;;;;;;25.70;36.57;100779.31;4199317;28;20010;-59
2023/11/14 03:03:10;;;;;;;;;;;;;;;25.71;36.56;100789.09;4199248;28;19963;-60
2023/11/14 03:05:12;;;;;;;;;;;;;;;25.71;36.54;100786.41;4199231;28;20423;-59
2023/11/14 03:07:14;;;;;;;;;;;;;;;25.70;36.44;100787.41;4198878;28;20314;-61
2023/11/14 03:09:16;;;;;;;;;;;;;;;25.68;36.76;100777.63;4199082;28;19943;-60
2023/11/14 03:11:18;;;;;;;;;;;;;;;25.67;36.82;100789.41;4198896;28;19981;-60
2023/11/14 03:13:19;;;;;;;;;;;;;;;25.67;36.75;100772.41;4199096;28;19959;-59
2023/11/14 03:15:21;;;;;;;;;;;;;;;25.66;36.85;100765.31;4198960;28;19963;-60
2023/11/14 03:17:22;;;;;;;;;;;;;;;25.68;36.57;100768.72;4198872;28;19920;-60
2023/11/14 03:19:24;;;;;;;;;;;;;;;25.66;36.75;100768.88;4198978;28;20303;-59
2023/11/14 03:21:25;;;;;;;;;;;;;;;25.68;36.68;100766.03;4199210;28;19927;-59
2023/11/14 03:23:27;;;;;;;;;;;;;;;25.68;36.79;100766.03;4198780;28;19986;-60
2023/11/14 03:25:28;;;;;;;;;;;;;;;25.67;36.92;100759.78;4198652;28;19925;-61
2023/11/14 03:27:30;;;;;;;;;;;;;;;25.68;36.42;100763.34;4198734;28;19924;-61
2023/11/14 03:29:32;;;;;;;;;;;;;;;25.70;36.55;100763.16;4198959;28;20015;-61
2023/11/14 03:31:33;;;;;;;;;;;;;;;25.69;36.62;100775.81;4198866;28;19921;-61
2023/11/14 03:33:36;;;;;;;;;;;;;;;25.68;36.43;100783.00;4198771;28;19934;-61
2023/11/14 03:35:38;;;;;;;;;;;;;;;25.67;36.44;100780.47;4198703;28;19924;-61
2023/11/14 03:37:40;;;;;;;;;;;;;;;25.65;36.86;100777.09;4198743;28;19934;-60
2023/11/14 03:39:42;;;;;;;;;;;;;;;25.66;36.93;100779.66;4198518;28;19921;-60
2023/11/14 03:41:43;;;;;;;;;;;;;;;25.67;36.73;100769.72;4198947;28;19924;-60
2023/11/14 03:43:45;;;;;;;;;;;;;;;25.67;36.80;100773.25;4198559;28;19920;-60
2023/11/14 03:45:46;;;;;;;;;;;;;;;25.68;36.56;100766.03;4198349;28;20391;-61
2023/11/14 03:47:48;;;;;;;;;;;;;;;25.68;36.74;100753.38;4198537;28;19966;-61
2023/11/14 03:49:49;;;;;;;;;;;;;;;25.70;36.78;100760.47;4198452;28;20375;-61
2023/11/14 03:51:51;;;;;;;;;;;;;;;25.70;36.77;100755.09;4198458;28;19976;-61
2023/11/14 03:53:52;;;;;;;;;;;;;;;25.70;36.30;100758.66;4197871;28;19920;-61
2023/11/14 03:55:54;;;;;;;;;;;;;;;25.68;36.64;100750.69;4198374;28;19927;-61
2023/11/14 03:57:56;;;;;;;;;;;;;;;25.67;36.62;100743.59;4198540;28;19925;-61
2023/11/14 03:59:57;;;;;;;;;;;;;;;25.67;36.46;100743.59;4198370;28;19928;-61
2023/11/14 04:01:59;;;;;;;;;;;;;;;25.67;36.85;100740.91;4198408;28;19924;-61
2023/11/14 04:04:01;;;;;;;;;;;;;;;25.67;36.58;100724.75;4198303;28;19926;-61
2023/11/14 04:06:02;;;;;;;;;;;;;;;25.67;36.67;100737.38;4198510;28;19924;-61
2023/11/14 04:08:04;;;;;;;;;;;;;;;25.68;36.71;100737.22;4197746;28;19920;-61
2023/11/14 04:10:07;;;;;;;;;;;;;;;25.69;36.90;100735.41;4198512;28;20007;-61
2023/11/14 04:12:08;;;;;;;;;;;;;;;25.70;36.50;100739.78;4198192;28;19920;-61
2023/11/14 04:14:10;;;;;;;;;;;;;;;25.70;36.80;100737.09;4196997;28;19935;-60
2023/11/14 04:16:13;;;;;;;;;;;;;;;25.71;36.84;100744.16;4198120;28;20312;-60
2023/11/14 04:18:14;;;;;;;;;;;;;;;25.70;36.50;100745.19;4198092;28;19920;-60
2023/11/14 04:20:16;;;;;;;;;;;;;;;25.70;36.48;100749.69;4198193;28;19924;-61
2023/11/14 04:22:18;;;;;;;;;;;;;;;25.68;36.82;100747.16;4198015;28;20306;-61
2023/11/14 04:24:19;;;;;;;;;;;;;;;25.67;36.96;100745.47;4198041;28;19920;-61
2023/11/14 04:26:22;;;;;;;;;;;;;;;25.67;36.62;100750.84;4197851;28;20014;-61
2023/11/14 04:28:23;;;;;;;;;;;;;;;25.68;36.92;100763.34;4197689;28;19974;-61
2023/11/14 04:30:25;;;;;;;;;;;;;;;25.67;36.85;100758.94;4197952;28;19991;-61
2023/11/14 04:32:27;;;;;;;;;;;;;;;25.67;36.74;100748.16;4197821;28;19960;-61
2023/11/14 04:34:28;;;;;;;;;;;;;;;25.69;36.96;100759.63;4197808;28;20019;-61
2023/11/14 04:36:30;;;;;;;;;;;;;;;25.69;36.57;100767.72;4196356;28;19936;-61
2023/11/14 04:38:33;;;;;;;;;;;;;;;25.69;36.67;100775.81;4197434;28;19924;-60
2023/11/14 04:40:34;;;;;;;;;;;;;;;25.71;36.49;100775.66;4197720;28;19981;-61
2023/11/14 04:42:36;;;;;;;;;;;;;;;25.70;36.45;100776.63;4197526;28;19968;-61
2023/11/14 04:44:37;;;;;;;;;;;;;;;25.70;36.92;100777.50;4197590;28;20387;-61
2023/11/14 04:46:45;;;;;;;;;;;;;;;25.68;36.66;100779.50;4197524;28;20011;-61
2023/11/14 04:48:47;;;;;;;;;;;;;;;25.67;36.57;100785.88;4197266;28;19927;-60
2023/11/14 04:50:48;;;;;;;;;;;;;;;25.66;36.82;100803.91;4197420;28;19981;-61
2023/11/14 04:52:50;;;;;;;;;;;;;;;25.66;36.46;100813.81;4197191;28;19951;-61
2023/11/14 04:54:51;;;;;;;;;;;;;;;25.65;36.53;100814.78;4197460;28;20317;-61
2023/11/14 04:56:54;;;;;;;;;;;;;;;25.65;36.92;100804.88;4196907;28;20288;-60
2023/11/14 04:58:55;;;;;;;;;;;;;;;25.65;36.93;100786.03;4197257;28;19962;-61
2023/11/14 05:00:57;;;;;;;;;;;;;;;25.67;36.80;100796.66;4196094;28;19927;-61
2023/11/14 05:03:04;;;;;;;;;;;;;;;25.67;36.90;100802.88;4197328;28;19947;-60
2023/11/14 05:05:06;;;;;;;;;;;;;;;25.67;36.85;100796.66;4197170;28;19956;-61
2023/11/14 05:07:08;;;;;;;;;;;;;;;25.67;36.61;100767.03;4196728;28;19960;-61
2023/11/14 05:09:13;;;;;;;;;;;;;;;25.66;36.78;100760.78;4197223;28;20284;-61
2023/11/14 05:11:14;;;;;;;;;;;;;;;25.65;36.61;100732.16;4197329;28;19920;-61
2023/11/14 05:13:17;;;;;;;;;;;;;;;25.64;36.74;100725.09;4196059;28;20363;-61
2023/11/14 05:15:19;;;;;;;;;;;;;;;25.64;36.85;100721.56;4196178;28;20717;-61
2023/11/14 05:17:20;;;;;;;;;;;;;;;25.65;36.64;100742.06;4195645;28;19943;-60
2023/11/14 05:19:27;;;;;;;;;;;;;;;25.65;36.86;100753.72;4197362;28;19931;-61
2023/11/14 05:21:28;;;;;;;;;;;;;;;25.67;36.86;100756.25;4196953;28;19924;-61
2023/11/14 05:23:30;;;;;;;;;;;;;;;25.68;36.82;100736.41;4196835;28;19946;-61
2023/11/14 05:25:32;;;;;;;;;;;;;;;25.66;36.76;100724.91;4196893;28;20346;-61
2023/11/14 05:27:34;;;;;;;;;;;;;;;25.65;36.68;100702.53;4197066;28;19966;-60
2023/11/14 05:29:35;;;;;;;;;;;;;;;25.65;36.74;100705.22;4196934;28;19921;-61
2023/11/14 05:31:38;;;;;;;;;;;;;;;25.66;36.85;100714.16;4197118;28;19966;-61
2023/11/14 05:33:40;;;;;;;;;;;;;;;25.65;36.63;100716.00;4196840;28;19947;-61
2023/11/14 05:35:41;;;;;;;;;;;;;;;25.65;36.74;100742.94;4196623;28;19963;-61
2023/11/14 05:37:44;;;;;;;;;;;;;;;25.64;36.82;100746.63;4196952;28;19920;-61
2023/11/14 05:39:45;;;;;;;;;;;;;;;25.65;36.62;100747.47;4196857;28;19985;-61
2023/11/14 05:41:47;;;;;;;;;;;;;;;25.65;36.77;100767.19;4196898;28;19943;-61
2023/11/14 05:43:48;;;;;;;;;;;;;;;25.67;36.87;100772.41;4197017;28;20007;-61
2023/11/14 05:45:53;;;;;;;;;;;;;;;25.66;36.49;100752.72;4196953;28;20387;-61
2023/11/14 05:47:55;;;;;;;;;;;;;;;25.66;36.72;100725.78;4196951;28;19920;-61
2023/11/14 05:49:56;;;;;;;;;;;;;;;25.65;36.70;100713.31;4196543;28;19921;-61
2023/11/14 05:51:58;;;;;;;;;;;;;;;25.67;36.92;100738.22;4196820;28;20007;-61
2023/11/14 05:53:59;;;;;;;;;;;;;;;25.69;36.83;100738.09;4195785;28;20311;-61
2023/11/14 05:56:01;;;;;;;;;;;;;;;25.68;36.54;100742.63;4196829;28;20357;-60
2023/11/14 05:58:03;;;;;;;;;;;;;;;25.68;36.56;100745.31;4196973;28;19921;-61
2023/11/14 06:00:04;;;;;;;;;;;;;;;25.68;36.83;100745.31;4196747;28;20015;-61
2023/11/14 06:02:09;;;;;;;;;;;;;;;25.68;36.70;100749.88;4196970;28;19924;-60
2023/11/14 06:04:11;;;;;;;;;;;;;;;25.52;37.00;100705.59;4196608;28;19921;-61
2023/11/14 06:06:13;;;;;;;;;;;;;;;25.67;36.87;100730.16;4196768;28;19926;-61
2023/11/14 06:08:14;;;;;;;;;;;;;;;25.67;36.76;100713.97;4198289;28;20447;-61
2023/11/14 06:10:16;;;;;;;;;;;;;;;25.67;36.80;100711.28;4198920;28;19920;-61
2023/11/14 06:12:17;;;;;;;;;;;;;;;25.69;36.80;100705.78;4200045;28;19973;-61
2023/11/14 06:14:19;;;;;;;;;;;;;;;25.69;36.67;100689.59;4200132;28;19928;-61
2023/11/14 06:16:20;;;;;;;;;;;;;;;25.70;36.44;100685.91;4199816;28;19920;-61
2023/11/14 06:18:29;;;;;;;;;;;;;;;25.69;36.60;100686.91;4199931;28;19920;-61
2023/11/14 06:20:32;;;;;;;;;;;;;;;25.70;37.01;100685.06;4200116;28;19970;-61
2023/11/14 06:22:34;;;;;;;;;;;;;;;25.70;36.67;100693.13;4198775;28;19920;-61
2023/11/14 06:24:35;;;;;;;;;;;;;;;25.69;36.61;100708.47;4200119;28;20014;-61
2023/11/14 06:26:37;;;;;;;;;;;;;;;25.69;36.55;100711.16;4199998;28;19931;-60
2023/11/14 06:28:38;;;;;;;;;;;;;;;25.68;36.78;100704.91;4199780;28;19971;-59
2023/11/14 06:30:40;;;;;;;;;;;;;;;25.68;36.60;100704.91;4199848;28;19928;-60
2023/11/14 06:32:42;;;;;;;;;;;;;;;25.61;36.54;100693.06;4199693;28;19978;-60
2023/11/14 06:34:43;;;;;;;;;;;;;;;25.68;36.66;100704.91;4215131;28;20398;-60
2023/11/14 06:36:45;;;;;;;;;;;;;;;25.70;36.84;100712.84;4199549;28;19966;-60
2023/11/14 06:38:46;;;;;;;;;;;;;;;25.71;36.81;100727.16;4199890;28;19921;-60
2023/11/14 06:40:48;;;;;;;;;;;;;;;25.70;36.75;100737.09;4199488;28;19924;-60
2023/11/14 06:42:50;;;;;;;;;;;;;;;25.71;36.79;100738.75;4199593;28;19927;-60
2023/11/14 06:44:51;;;;;;;;;;;;;;;25.71;36.70;100746.84;4199730;28;19963;-59
2023/11/14 06:46:53;;;;;;;;;;;;;;;25.70;36.74;100747.00;4199489;28;19999;-60
2023/11/14 06:48:54;;;;;;;;;;;;;;;25.66;36.74;100723.09;4199307;28;19921;-59
2023/11/14 06:50:56;;;;;;;;;;;;;;;25.64;36.52;100705.41;4199258;28;20015;-59
2023/11/14 06:52:57;;;;;;;;;;;;;;;25.63;36.55;100704.53;4199775;28;20003;-59
2023/11/14 06:54:59;;;;;;;;;;;;;;;25.63;36.71;100722.53;4199393;28;19920;-60
2023/11/14 06:57:00;;;;;;;;;;;;;;;25.62;36.80;100710.91;4199479;28;19960;-60
2023/11/14 06:59:02;;;;;;;;;;;;;;;25.63;36.90;100714.47;4199598;28;19920;-59
2023/11/14 07:01:03;;;;;;;;;;;;;;;25.63;36.80;100715.31;4199436;28;19920;-59
2023/11/14 07:03:05;;;;;;;;;;;;;;;25.64;36.68;100697.31;4197917;28;19952;-59
2023/11/14 07:05:09;;;;;;;;;;;;;;;25.64;36.79;100697.31;4199336;28;20004;-59
2023/11/14 07:07:11;;;;;;;;;;;;;;;25.65;36.67;100696.28;4199332;28;19929;-59
2023/11/14 07:09:15;;;;;;;;;;;;;;;25.64;36.77;100694.63;4198939;28;19966;-59
2023/11/14 07:11:17;;;;;;;;;;;;;;;25.65;36.45;100715.13;4199223;28;19952;-60
2023/11/14 07:13:19;;;;;;;;;;;;;;;25.65;36.73;100736.69;4197818;28;19955;-59
2023/11/14 07:15:21;;;;;;;;;;;;;;;25.63;36.75;100747.63;4199404;28;20440;-59
2023/11/14 07:17:23;;;;;;;;;;;;;;;25.65;36.68;100734.00;4198748;28;19920;-60
2023/11/14 07:19:25;;;;;;;;;;;;;;;25.64;36.64;100719.69;4198429;28;19959;-60
2023/11/14 07:21:30;;;;;;;;;;;;;;;25.63;36.80;100709.91;4199171;28;19921;-59
2023/11/14 07:23:31;;;;;;;;;;;;;;;25.62;36.86;100704.69;4197953;28;20418;-60
2023/11/14 07:25:34;;;;;;;;;;;;;;;25.63;36.88;100701.84;4199061;28;19921;-60
2023/11/14 07:27:41;;;;;;;;;;;;;;;25.64;36.85;100692.75;4198929;28;20011;-60
2023/11/14 07:29:42;;;;;;;;;;;;;;;25.64;36.76;100695.44;4198740;28;20382;-59
2023/11/14 07:31:45;;;;;;;;;;;;;;;25.63;36.51;100701.84;4198764;28;20019;-60
2023/11/14 07:33:47;;;;;;;;;;;;;;;25.63;36.94;100695.63;4198866;28;19928;-60
2023/11/14 07:35:48;;;;;;;;;;;;;;;25.62;36.65;100708.22;4198720;28;19924;-60
2023/11/14 07:37:50;;;;;;;;;;;;;;;25.61;36.76;100719.16;4198974;28;19920;-60
2023/11/14 07:39:51;;;;;;;;;;;;;;;25.59;36.83;100708.53;4198969;28;19928;-60
2023/11/14 07:41:58;;;;;;;;;;;;;;;25.59;36.96;100704.97;4198809;28;20029;-59
2023/11/14 07:44:00;;;;;;;;;;;;;;;25.58;36.58;100712.22;4198793;28;19982;-59
2023/11/14 07:46:03;;;;;;;;;;;;;;;25.58;36.83;100708.66;4198226;28;19924;-60
2023/11/14 07:48:07;;;;;;;;;;;;;;;25.59;36.85;100722.00;4198712;28;19943;-60
2023/11/14 07:50:09;;;;;;;;;;;;;;;25.59;37.00;100719.31;4198462;28;19921;-60
2023/11/14 07:52:11;;;;;;;;;;;;;;;25.59;36.77;100724.69;4198725;28;19928;-60
2023/11/14 07:54:12;;;;;;;;;;;;;;;25.61;36.83;100719.16;4198609;28;20399;-60
2023/11/14 07:56:14;;;;;;;;;;;;;;;25.60;36.67;100721.00;4198507;28;19921;-60
2023/11/14 07:58:15;;;;;;;;;;;;;;;25.59;36.82;100716.63;4198514;28;19920;-60
2023/11/14 08:00:18;;;;;;;;;;;;;;;25.58;36.83;100731.06;4198100;28;19962;-59
2023/11/14 08:02:20;;;;;;;;;;;;;;;25.58;36.71;100728.38;4198321;28;19927;-60
2023/11/14 08:04:21;;;;;;;;;;;;;;;25.57;36.66;100740.16;4198467;28;19926;-60
2023/11/14 08:06:24;;;;;;;;;;;;;;;25.58;36.63;100749.94;4198524;28;19920;-62
2023/11/14 08:08:26;;;;;;;;;;;;;;;25.58;36.95;100739.16;4198214;28;19967;-59
2023/11/14 08:10:28;;;;;;;;;;;;;;;25.58;36.82;100736.47;4198351;28;19924;-60
2023/11/14 08:12:30;;;;;;;;;;;;;;;25.59;36.89;100748.06;4198237;28;19973;-60
2023/11/14 08:14:31;;;;;;;;;;;;;;;25.60;36.82;100764.09;4197874;28;19920;-60
2023/11/14 08:16:33;;;;;;;;;;;;;;;25.60;36.73;100772.19;4198284;28;19986;-59
2023/11/14 08:18:34;;;;;;;;;;;;;;;25.60;36.84;100768.63;4198353;28;19920;-60
2023/11/14 08:20:36;;;;;;;;;;;;;;;25.59;37.03;100765.09;4198040;28;19927;-60
2023/11/14 08:22:37;;;;;;;;;;;;;;;25.58;36.67;100758.00;4198247;28;20391;-60
2023/11/14 08:24:39;;;;;;;;;;;;;;;25.56;36.88;100741.16;4198249;28;19962;-59
2023/11/14 08:26:40;;;;;;;;;;;;;;;25.55;36.59;100734.06;4197896;28;19947;-62
2023/11/14 08:28:42;;;;;;;;;;;;;;;25.54;36.79;100745.84;4197884;28;20299;-59
2023/11/14 08:30:43;;;;;;;;;;;;;;;25.54;37.09;100740.44;4197325;28;19920;-59
2023/11/14 08:32:47;;;;;;;;;;;;;;;25.57;36.72;100750.09;4197234;28;19946;-60
2023/11/14 08:34:48;;;;;;;;;;;;;;;25.58;36.97;100766.09;4198029;28;19940;-59
2023/11/14 08:36:50;;;;;;;;;;;;;;;25.60;36.96;100760.53;4197833;28;19920;-60
2023/11/14 08:38:52;;;;;;;;;;;;;;;25.61;36.96;100746.91;4198020;28;19927;-60
2023/11/14 08:40:55;;;;;;;;;;;;;;;25.62;36.78;100715.47;4197891;28;19924;-60
2023/11/14 08:42:57;;;;;;;;;;;;;;;25.62;36.63;100710.06;4197932;28;19921;-60
2023/11/14 08:45:01;;;;;;;;;;;;;;;25.62;36.64;100702.00;4197494;28;19952;-60
2023/11/14 08:47:03;;;;;;;;;;;;;;;25.61;36.94;100711.91;4197749;28;20002;-60
2023/11/14 08:49:07;;;;;;;;;;;;;;;25.59;36.82;100697.75;4197488;28;19920;-60
2023/11/14 08:51:10;;;;;;;;;;;;;;;25.59;37.15;100691.53;4197469;28;19928;-60
2023/11/14 08:53:11;;;;;;;;;;;;;;;25.58;37.13;100676.34;4197583;28;19951;-60
2023/11/14 08:55:13;;;;;;;;;;;;;;;25.57;36.79;100677.38;4197469;28;20015;-61
2023/11/14 08:57:15;;;;;;;;;;;;;;;25.58;37.07;100665.59;4197657;28;20030;-61
2023/11/14 08:59:17;;;;;;;;;;;;;;;25.57;37.05;100674.69;4197291;28;20033;-61
2023/11/14 09:01:18;;;;;;;;;;;;;;;25.59;37.08;100661.91;4197513;28;19943;-61
2023/11/14 09:03:20;;;;;;;;;;;;;;;25.59;37.08;100651.13;4196164;28;20001;-61
2023/11/14 09:05:22;;;;;;;;;;;;;;;25.60;36.79;100648.28;4197319;28;19963;-60
2023/11/14 09:07:24;;;;;;;;;;;;;;;25.60;36.79;100640.22;4197355;28;20016;-61
2023/11/14 09:09:25;;;;;;;;;;;;;;;25.59;37.13;100635.81;4197308;28;19928;-61
2023/11/14 09:11:30;;;;;;;;;;;;;;;25.60;36.81;100637.53;4197656;28;19954;-62
2023/11/14 09:13:33;;;;;;;;;;;;;;;25.59;37.12;100629.56;4197243;28;19935;-61
2023/11/14 09:15:34;;;;;;;;;;;;;;;25.58;36.84;100617.09;4197595;28;19959;-61
2023/11/14 09:17:36;;;;;;;;;;;;;;;25.57;37.16;100618.13;4197404;28;20011;-61
2023/11/14 09:19:42;;;;;;;;;;;;;;;25.57;37.28;100635.13;4197562;28;19920;-61
2023/11/14 09:21:43;;;;;;;;;;;;;;;25.58;37.30;100630.56;4197554;28;19924;-61
2023/11/14 09:23:45;;;;;;;;;;;;;;;25.59;37.13;100635.81;4197504;28;19920;-61
2023/11/14 09:25:47;;;;;;;;;;;;;;;25.61;36.87;100646.44;4197280;28;19920;-61
2023/11/14 09:27:49;;;;;;;;;;;;;;;25.63;37.14;100647.13;4196839;28;19974;-61
2023/11/14 09:29:51;;;;;;;;;;;;;;;25.62;37.12;100638.19;4197280;28;19994;-61
2023/11/14 09:31:54;;;;;;;;;;;;;;;25.63;37.14;100644.44;4197334;28;20427;-61
2023/11/14 09:33:56;;;;;;;;;;;;;;;25.63;36.74;100650.66;4197362;28;19924;-60
2023/11/14 09:35:58;;;;;;;;;;;;;;;25.63;36.82;100642.59;4197446;28;19981;-61
2023/11/14 09:37:59;;;;;;;;;;;;;;;25.62;36.82;100638.19;4197384;28;19927;-61
2023/11/14 09:40:01;;;;;;;;;;;;;;;25.60;37.14;100621.38;4197270;28;20382;-61
2023/11/14 09:42:03;;;;;;;;;;;;;;;25.56;37.19;100602.97;4196861;28;19920;-61
2023/11/14 09:44:06;;;;;;;;;;;;;;;25.55;37.04;100609.34;4195767;28;19960;-61
2023/11/14 09:46:12;;;;;;;;;;;;;;;25.55;36.91;100630.91;4197093;28;19927;-61
2023/11/14 09:48:13;;;;;;;;;;;;;;;25.56;37.05;100628.03;4197294;28;19928;-61
2023/11/14 09:50:16;;;;;;;;;;;;;;;25.57;36.86;100626.22;4196935;28;19921;-61
2023/11/14 09:52:18;;;;;;;;;;;;;;;25.57;36.84;100624.34;4197231;28;19920;-61
2023/11/14 09:54:20;;;;;;;;;;;;;;;25.57;37.16;100618.97;4197069;28;20411;-61
2023/11/14 09:56:22;;;;;;;;;;;;;;;25.57;36.92;100618.97;4195463;28;19998;-61
2023/11/14 09:58:24;;;;;;;;;;;;;;;25.55;37.16;100623.66;4196812;28;19977;-61
2023/11/14 10:00:27;;;;;;;;;;;;;;;25.52;37.11;100621.28;4197066;28;19920;-61
2023/11/14 10:02:29;;;;;;;;;;;;;;;25.49;37.06;100624.28;4197029;28;19920;-61
2023/11/14 10:04:31;;;;;;;;;;;;;;;25.45;37.37;100626.44;4197218;28;19924;-61
2023/11/14 10:06:39;;;;;;;;;;;;;;;25.46;36.94;100624.59;4196993;28;19932;-61
2023/11/14 10:08:40;;;;;;;;;;;;;;;25.45;37.30;100626.44;4197001;28;20418;-60
2023/11/14 10:11:03;;;;;;;;;;;;;;;25.36;37.09;100613.88;4196590;28;19920;-61
2023/11/14 10:13:17;;;;;;;;;;;;;;;25.47;37.42;100619.06;4197027;28;19948;-61
2023/11/14 10:15:28;;;;;;;;;;;;;;;25.50;37.35;100629.50;4196819;28;19920;-61
2023/11/14 10:17:40;;;;;;;;;;;;;;;25.51;37.16;100622.28;4197033;28;19920;-61
2023/11/14 10:19:58;;;;;;;;;;;;;;;25.49;37.31;100625.13;4196888;28;20046;-61
2023/11/14 10:22:04;;;;;;;;;;;;;;;25.48;36.89;100618.06;4196706;28;19974;-63
2023/11/14 10:24:13;;;;;;;;;;;;;;;25.49;37.42;100618.88;4196800;28;20024;-61
2023/11/14 10:26:15;;;;;;;;;;;;;;;25.48;37.26;100625.28;4196573;28;20263;-61
2023/11/14 10:28:16;;;;;;;;;;;;;;;25.47;37.20;100620.88;4196922;28;19999;-61